createdAt,value
2022-12-03T00:02:34.295Z,-8.71
2022-12-03T00:05:56.386Z,-8.70
2022-12-03T00:09:18.445Z,-8.70
2022-12-03T00:12:42.499Z,-8.72
2022-12-03T00:16:04.275Z,-8.78
2022-12-03T00:19:26.357Z,-8.72
2022-12-03T00:22:48.675Z,-8.75
2022-12-03T00:26:10.856Z,-8.70
2022-12-03T00:29:34.642Z,-8.72
2022-12-03T00:32:56.444Z,-8.73
2022-12-03T00:36:18.274Z,-8.83
2022-12-03T00:39:40.115Z,-8.76
2022-12-03T00:43:05.587Z,-8.76
2022-12-03T00:46:29.479Z,-8.76
2022-12-03T00:49:51.871Z,-8.83
2022-12-03T00:53:13.898Z,-8.76
2022-12-03T00:56:35.900Z,-8.80
2022-12-03T00:59:57.567Z,-8.72
2022-12-03T01:03:20.976Z,-8.70
2022-12-03T01:06:43.044Z,-8.70
2022-12-03T01:10:05.528Z,-8.71
2022-12-03T01:13:27.467Z,-8.69
2022-12-03T01:16:49.810Z,-8.60
2022-12-03T01:20:14.111Z,-8.58
2022-12-03T01:23:35.963Z,-8.65
2022-12-03T01:26:58.128Z,-8.56
2022-12-03T01:30:20.496Z,-8.54
2022-12-03T01:33:41.231Z,-8.57
2022-12-03T01:37:04.801Z,-8.57
2022-12-03T01:40:27.024Z,-8.57
2022-12-03T01:43:50.216Z,-8.68
2022-12-03T01:47:15.159Z,-8.65
2022-12-03T01:50:37.081Z,-8.65
2022-12-03T01:54:02.190Z,-8.61
2022-12-03T01:57:28.324Z,-8.56
2022-12-03T02:00:50.190Z,-8.54
2022-12-03T02:04:15.356Z,-8.56
2022-12-03T02:07:37.232Z,-8.57
2022-12-03T02:11:06.503Z,-8.57
2022-12-03T02:14:28.357Z,-8.61
2022-12-03T02:17:50.391Z,-8.63
2022-12-03T02:21:18.400Z,-8.68
2022-12-03T02:24:47.659Z,-8.76
2022-12-03T02:28:11.626Z,-8.70
2022-12-03T02:31:33.704Z,-8.75
2022-12-03T02:34:55.959Z,-8.72
2022-12-03T02:38:21.515Z,-8.74
2022-12-03T02:42:01.352Z,-8.78
2022-12-03T02:45:28.950Z,-8.74
2022-12-03T02:48:50.822Z,-8.74
2022-12-03T02:52:13.219Z,-8.73
2022-12-03T02:55:37.517Z,-8.75
2022-12-03T02:59:04.459Z,-8.83
2022-12-03T03:02:28.525Z,-8.77
2022-12-03T03:05:51.616Z,-8.81
2022-12-03T03:09:13.917Z,-8.80
2022-12-03T03:12:39.397Z,-8.83
2022-12-03T03:16:03.613Z,-8.84
2022-12-03T03:19:27.760Z,-8.85
2022-12-03T03:22:49.569Z,-8.88
2022-12-03T03:26:14.603Z,-8.89
2022-12-03T03:29:36.795Z,-8.88
2022-12-03T03:32:58.973Z,-8.90
2022-12-03T03:36:23.499Z,-8.90
2022-12-03T03:39:45.362Z,-8.96
2022-12-03T03:43:08.431Z,-8.95
2022-12-03T03:46:33.400Z,-9.02
2022-12-03T03:49:55.901Z,-9.06
2022-12-03T03:53:19.790Z,-9.12
2022-12-03T03:56:42.284Z,-9.19
2022-12-03T04:00:06.107Z,-9.23
2022-12-03T04:03:29.241Z,-9.27
2022-12-03T04:06:51.857Z,-9.35
2022-12-03T04:10:33.172Z,-9.41
2022-12-03T04:13:55.217Z,-9.48
2022-12-03T04:17:17.418Z,-9.52
2022-12-03T04:20:39.456Z,-9.57
2022-12-03T04:24:00.969Z,-9.65
2022-12-03T04:27:41.852Z,-9.65
2022-12-03T04:31:24.234Z,-9.70
2022-12-03T04:35:03.770Z,-9.71
2022-12-03T04:38:25.723Z,-9.72
2022-12-03T04:41:47.425Z,-9.81
2022-12-03T04:45:11.553Z,-9.76
2022-12-03T04:48:33.324Z,-9.82
2022-12-03T04:51:55.381Z,-9.89
2022-12-03T04:55:17.463Z,-9.91
2022-12-03T04:58:39.672Z,-9.91
2022-12-03T05:02:03.426Z,-9.94
2022-12-03T05:05:25.563Z,-9.98
2022-12-03T05:08:47.581Z,-10.02
2022-12-03T05:12:09.417Z,-10.07
2022-12-03T05:15:31.162Z,-10.09
2022-12-03T05:18:54.628Z,-10.12
2022-12-03T05:22:16.475Z,-10.16
2022-12-03T05:25:38.692Z,-10.21
2022-12-03T05:29:00.993Z,-10.27
2022-12-03T05:32:23.050Z,-10.32
2022-12-03T05:35:46.257Z,-10.40
2022-12-03T05:39:08.091Z,-10.44
2022-12-03T05:42:47.572Z,-10.44
2022-12-03T05:46:09.378Z,-10.48
2022-12-03T05:49:31.355Z,-10.50
2022-12-03T05:52:54.818Z,-10.53
2022-12-03T05:56:16.524Z,-10.61
2022-12-03T05:59:38.545Z,-10.58
2022-12-03T06:03:00.578Z,-10.63
2022-12-03T06:06:22.495Z,-10.67
2022-12-03T06:09:46.139Z,-10.63
2022-12-03T06:13:07.977Z,-10.75
2022-12-03T06:16:30.205Z,-10.72
2022-12-03T06:19:52.310Z,-10.67
2022-12-03T06:23:13.881Z,-10.76
2022-12-03T06:26:37.050Z,-10.65
2022-12-03T06:29:58.827Z,-10.65
2022-12-03T06:33:20.916Z,-10.67
2022-12-03T06:36:43.048Z,-10.66
2022-12-03T06:40:05.168Z,-10.67
2022-12-03T06:43:28.714Z,-10.70
2022-12-03T06:46:51.049Z,-10.78
2022-12-03T06:50:13.891Z,-10.81
2022-12-03T06:53:36.140Z,-10.82
2022-12-03T06:56:58.055Z,-10.82
2022-12-03T07:00:25.538Z,-10.81
2022-12-03T07:03:48.321Z,-10.77
2022-12-03T07:07:10.112Z,-10.78
2022-12-03T07:10:32.085Z,-10.77
2022-12-03T07:13:54.164Z,-10.84
2022-12-03T07:17:17.390Z,-10.89
2022-12-03T07:20:39.628Z,-10.90
2022-12-03T07:24:01.708Z,-10.92
2022-12-03T07:27:23.405Z,-10.85
2022-12-03T07:30:45.144Z,-10.85
2022-12-03T07:34:08.339Z,-10.85
2022-12-03T07:37:30.134Z,-10.84
2022-12-03T07:40:52.143Z,-10.82
2022-12-03T07:44:15.026Z,-10.82
2022-12-03T07:47:36.945Z,-10.78
2022-12-03T07:51:00.561Z,-10.64
2022-12-03T07:54:26.188Z,-10.65
2022-12-03T07:57:48.418Z,-10.49
2022-12-03T08:01:11.522Z,-10.47
2022-12-03T08:04:33.338Z,-10.52
2022-12-03T08:07:57.165Z,-10.41
2022-12-03T08:11:20.121Z,-10.41
2022-12-03T08:14:42.080Z,-10.47
2022-12-03T08:18:09.635Z,-10.41
2022-12-03T08:21:37.622Z,-10.35
2022-12-03T08:25:01.179Z,-10.27
2022-12-03T08:28:25.977Z,-10.24
2022-12-03T08:31:52.230Z,-10.16
2022-12-03T08:35:16.395Z,-10.17
2022-12-03T08:38:38.503Z,-10.17
2022-12-03T08:42:32.190Z,-10.11
2022-12-03T08:45:56.183Z,-10.08
2022-12-03T08:49:19.426Z,-10.04
2022-12-03T08:52:41.279Z,-9.97
2022-12-03T08:56:06.164Z,-9.92
2022-12-03T08:59:30.869Z,-9.81
2022-12-03T09:02:54.988Z,-9.89
2022-12-03T09:06:17.285Z,-9.72
2022-12-03T09:09:38.806Z,-9.69
2022-12-03T09:13:00.886Z,-9.76
2022-12-03T09:16:24.487Z,-9.65
2022-12-03T09:19:46.573Z,-9.64
2022-12-03T09:23:08.699Z,-9.55
2022-12-03T09:26:33.227Z,-9.54
2022-12-03T09:29:55.379Z,-9.46
2022-12-03T09:33:19.152Z,-9.36
2022-12-03T09:36:43.165Z,-9.33
2022-12-03T09:40:05.489Z,-9.36
2022-12-03T09:43:49.448Z,-9.34
2022-12-03T09:47:11.472Z,-9.32
2022-12-03T09:50:35.864Z,-9.25
2022-12-03T09:54:00.089Z,-9.18
2022-12-03T09:57:22.269Z,-9.08
2022-12-03T10:00:48.171Z,-9.01
2022-12-03T10:04:10.608Z,-8.99
2022-12-03T10:07:34.051Z,-8.94
2022-12-03T10:10:57.696Z,-8.91
2022-12-03T10:14:21.054Z,-8.89
2022-12-03T10:17:43.575Z,-8.83
2022-12-03T10:21:05.575Z,-8.82
2022-12-03T10:24:30.665Z,-8.84
2022-12-03T10:27:59.185Z,-8.88
2022-12-03T10:31:21.051Z,-8.83
2022-12-03T10:34:44.867Z,-8.90
2022-12-03T10:38:08.897Z,-8.89
2022-12-03T10:41:32.124Z,-8.90
2022-12-03T10:45:09.946Z,-9.02
2022-12-03T10:48:31.816Z,-8.95
2022-12-03T10:51:53.792Z,-8.90
2022-12-03T10:55:16.756Z,-8.93
2022-12-03T10:58:41.715Z,-9.00
2022-12-03T11:02:05.159Z,-9.02
2022-12-03T11:05:28.633Z,-9.05
2022-12-03T11:08:57.110Z,-9.00
2022-12-03T11:12:22.152Z,-9.03
2022-12-03T11:15:46.823Z,-9.05
2022-12-03T11:19:17.875Z,-9.01
2022-12-03T11:22:44.827Z,-8.97
2022-12-03T11:26:06.794Z,-8.94
2022-12-03T11:29:51.187Z,-8.97
2022-12-03T11:33:25.004Z,-9.01
2022-12-03T11:37:20.504Z,-8.92
2022-12-03T11:41:08.913Z,-8.89
2022-12-03T11:44:36.943Z,-8.89
2022-12-03T11:48:12.947Z,-8.89
2022-12-03T11:51:36.449Z,-9.01
2022-12-03T11:55:02.941Z,-9.07
2022-12-03T11:58:28.143Z,-9.12
2022-12-03T12:01:49.820Z,-9.22
2022-12-03T12:05:28.590Z,-9.23
2022-12-03T12:09:00.309Z,-9.27
2022-12-03T12:12:29.527Z,-9.24
2022-12-03T12:15:51.486Z,-9.25
2022-12-03T12:19:33.833Z,-9.27
2022-12-03T12:22:56.485Z,-9.34
2022-12-03T12:26:20.248Z,-9.27
2022-12-03T12:29:44.247Z,-9.27
2022-12-03T12:33:25.770Z,-9.26
2022-12-03T12:36:48.171Z,-9.25
2022-12-03T12:40:19.125Z,-9.24
2022-12-03T12:43:42.613Z,-9.20
2022-12-03T12:47:13.932Z,-9.21
2022-12-03T12:50:36.296Z,-9.38
2022-12-03T12:53:58.943Z,-9.42
2022-12-03T12:57:24.821Z,-9.48
2022-12-03T13:00:51.916Z,-9.57
2022-12-03T13:04:16.531Z,-9.63
2022-12-03T13:07:39.337Z,-9.57
2022-12-03T13:11:02.878Z,-9.59
2022-12-03T13:14:26.386Z,-9.55
2022-12-03T13:17:50.183Z,-9.57
2022-12-03T13:21:22.892Z,-9.61
2022-12-03T13:24:47.800Z,-9.61
2022-12-03T13:28:09.904Z,-9.61
2022-12-03T13:31:43.484Z,-9.61
2022-12-03T13:35:16.268Z,-9.64
2022-12-03T13:38:38.571Z,-9.58
2022-12-03T13:42:31.472Z,-9.54
2022-12-03T13:45:55.504Z,-9.55
2022-12-03T13:49:22.923Z,-9.46
2022-12-03T13:52:46.232Z,-9.45
2022-12-03T13:56:27.448Z,-9.49
2022-12-03T13:59:49.468Z,-9.45
2022-12-03T14:03:11.158Z,-9.45
2022-12-03T14:06:33.924Z,-9.49
2022-12-03T14:09:57.645Z,-9.38
2022-12-03T14:13:19.820Z,-9.31
2022-12-03T14:16:42.950Z,-9.31
2022-12-03T14:20:05.997Z,-9.30
2022-12-03T14:23:28.189Z,-9.29
2022-12-03T14:26:51.897Z,-9.34
2022-12-03T14:30:14.744Z,-9.43
2022-12-03T14:33:36.519Z,-9.41
2022-12-03T14:36:58.962Z,-9.49
2022-12-03T14:40:23.283Z,-9.44
2022-12-03T14:43:46.453Z,-9.43
2022-12-03T14:47:08.587Z,-9.39
2022-12-03T14:50:30.765Z,-9.36
2022-12-03T14:53:52.636Z,-9.39
2022-12-03T14:57:16.861Z,-9.41
2022-12-03T15:00:40.417Z,-9.44
2022-12-03T15:04:02.312Z,-9.42
2022-12-03T15:07:24.261Z,-9.37
2022-12-03T15:10:46.572Z,-9.36
2022-12-03T15:14:09.954Z,-9.35
2022-12-03T15:17:33.851Z,-9.30
2022-12-03T15:20:55.891Z,-9.31
2022-12-03T15:24:18.047Z,-9.27
2022-12-03T15:27:41.626Z,-9.27
2022-12-03T15:31:03.562Z,-9.23
2022-12-03T15:34:26.970Z,-9.23
2022-12-03T15:37:48.890Z,-9.14
2022-12-03T15:41:24.698Z,-9.11
2022-12-03T15:44:46.447Z,-9.19
2022-12-03T15:48:08.591Z,-9.05
2022-12-03T15:51:32.102Z,-9.04
2022-12-03T15:54:55.305Z,-9.06
2022-12-03T15:58:17.151Z,-9.08
2022-12-03T16:01:38.975Z,-9.07
2022-12-03T16:05:01.142Z,-9.15
2022-12-03T16:08:24.516Z,-9.01
2022-12-03T16:11:46.288Z,-9.03
2022-12-03T16:15:09.196Z,-8.94
2022-12-03T16:18:32.237Z,-8.84
2022-12-03T16:21:54.352Z,-8.85
2022-12-03T16:25:17.388Z,-8.80
2022-12-03T16:28:39.612Z,-8.79
2022-12-03T16:32:02.092Z,-8.75
2022-12-03T16:35:24.036Z,-8.72
2022-12-03T16:38:46.012Z,-8.61
2022-12-03T16:42:16.203Z,-8.57
2022-12-03T16:46:02.369Z,-8.56
2022-12-03T16:49:24.124Z,-8.46
2022-12-03T16:52:47.747Z,-8.43
2022-12-03T16:56:10.054Z,-8.39
2022-12-03T16:59:33.316Z,-8.32
2022-12-03T17:02:55.409Z,-8.26
2022-12-03T17:06:17.399Z,-8.27
2022-12-03T17:09:40.027Z,-8.28
2022-12-03T17:13:09.224Z,-8.21
2022-12-03T17:16:33.671Z,-8.17
2022-12-03T17:19:55.717Z,-8.18
2022-12-03T17:23:18.014Z,-8.19
2022-12-03T17:26:41.946Z,-8.13
2022-12-03T17:30:06.432Z,-8.10
2022-12-03T17:33:29.608Z,-8.00
2022-12-03T17:36:51.738Z,-8.02
2022-12-03T17:40:15.590Z,-7.92
2022-12-03T17:43:37.639Z,-7.88
2022-12-03T17:46:59.698Z,-7.89
2022-12-03T17:50:23.332Z,-7.79
2022-12-03T17:53:45.178Z,-7.80
2022-12-03T17:57:06.862Z,-7.76
2022-12-03T18:00:29.530Z,-7.72
2022-12-03T18:03:51.684Z,-7.69
2022-12-03T18:07:15.056Z,-7.62
2022-12-03T18:10:37.447Z,-7.66
2022-12-03T18:14:01.562Z,-7.53
2022-12-03T18:17:23.429Z,-7.56
2022-12-03T18:20:45.645Z,-7.62
2022-12-03T18:24:09.696Z,-7.49
2022-12-03T18:27:31.660Z,-7.45
2022-12-03T18:30:54.246Z,-7.43
2022-12-03T18:34:16.028Z,-7.41
2022-12-03T18:37:38.528Z,-7.37
2022-12-03T18:41:05.602Z,-7.34
2022-12-03T18:44:28.991Z,-7.42
2022-12-03T18:47:51.113Z,-7.29
2022-12-03T18:51:18.719Z,-7.32
2022-12-03T18:54:41.856Z,-7.37
2022-12-03T18:58:06.042Z,-7.30
2022-12-03T19:01:28.329Z,-7.17
2022-12-03T19:04:51.310Z,-7.13
2022-12-03T19:08:15.345Z,-7.10
2022-12-03T19:11:38.126Z,-7.06
2022-12-03T19:15:01.471Z,-7.03
2022-12-03T19:18:24.013Z,-7.02
2022-12-03T19:21:46.059Z,-6.97
2022-12-03T19:25:08.252Z,-6.93
2022-12-03T19:28:30.748Z,-6.89
2022-12-03T19:31:54.391Z,-6.87
2022-12-03T19:35:16.476Z,-6.88
2022-12-03T19:38:39.047Z,-6.91
2022-12-03T19:42:00.926Z,-7.02
2022-12-03T19:45:23.125Z,-6.99
2022-12-03T19:48:46.584Z,-6.87
2022-12-03T19:52:08.575Z,-6.94
2022-12-03T19:55:30.733Z,-6.85
2022-12-03T19:58:56.697Z,-6.77
2022-12-03T20:02:18.878Z,-6.73
2022-12-03T20:05:42.477Z,-6.69
2022-12-03T20:09:07.702Z,-6.69
2022-12-03T20:12:29.468Z,-6.69
2022-12-03T20:15:51.588Z,-6.71
2022-12-03T20:19:18.536Z,-6.73
2022-12-03T20:22:42.008Z,-6.72
2022-12-03T20:26:04.033Z,-6.71
2022-12-03T20:29:26.042Z,-6.78
2022-12-03T20:32:48.280Z,-6.69
2022-12-03T20:36:12.266Z,-6.69
2022-12-03T20:39:35.789Z,-6.65
2022-12-03T20:42:57.574Z,-6.62
2022-12-03T20:46:22.007Z,-6.66
2022-12-03T20:49:44.051Z,-6.70
2022-12-03T20:53:23.872Z,-6.61
2022-12-03T20:56:48.043Z,-6.61
2022-12-03T21:00:10.595Z,-6.60
2022-12-03T21:03:33.095Z,-6.56
2022-12-03T21:06:55.270Z,-6.54
2022-12-03T21:10:31.243Z,-6.52
2022-12-03T21:13:55.485Z,-6.47
2022-12-03T21:17:17.309Z,-6.47
2022-12-03T21:20:42.849Z,-6.44
2022-12-03T21:24:05.323Z,-6.38
2022-12-03T21:27:30.435Z,-6.35
2022-12-03T21:30:53.490Z,-6.33
2022-12-03T21:34:15.779Z,-6.30
2022-12-03T21:37:37.665Z,-6.28
2022-12-03T21:41:00.272Z,-6.26
2022-12-03T21:44:22.179Z,-6.26
2022-12-03T21:47:48.335Z,-6.29
2022-12-03T21:51:12.946Z,-6.23
2022-12-03T21:54:35.029Z,-6.22
2022-12-03T21:58:05.592Z,-6.18
2022-12-03T22:01:27.677Z,-6.20
2022-12-03T22:04:52.484Z,-6.18
2022-12-03T22:08:14.744Z,-6.19
2022-12-03T22:11:36.955Z,-6.20
2022-12-03T22:14:59.246Z,-6.20
2022-12-03T22:18:21.532Z,-6.21
2022-12-03T22:21:45.056Z,-6.23
2022-12-03T22:25:07.225Z,-6.26
2022-12-03T22:28:29.076Z,-6.22
2022-12-03T22:31:51.207Z,-6.22
2022-12-03T22:35:13.262Z,-6.20
2022-12-03T22:38:36.791Z,-6.19
2022-12-03T22:41:58.400Z,-6.19
2022-12-03T22:45:20.036Z,-6.19
2022-12-03T22:48:42.599Z,-6.22
2022-12-03T22:52:04.518Z,-6.19
2022-12-03T22:55:28.217Z,-6.18
2022-12-03T22:58:51.884Z,-6.17
2022-12-03T23:02:13.560Z,-6.17
2022-12-03T23:05:37.077Z,-6.15
2022-12-03T23:09:00.190Z,-6.15
2022-12-03T23:12:23.581Z,-6.15
2022-12-03T23:15:46.890Z,-6.14
2022-12-03T23:19:09.007Z,-6.13
2022-12-03T23:22:31.281Z,-6.10
2022-12-03T23:25:58.693Z,-6.09
2022-12-03T23:29:21.856Z,-6.07
2022-12-03T23:32:44.552Z,-6.15
2022-12-03T23:36:09.188Z,-6.10
2022-12-03T23:39:30.860Z,-6.04
2022-12-03T23:42:52.995Z,-6.04
2022-12-03T23:46:18.630Z,-6.03
2022-12-03T23:49:40.522Z,-6.02
2022-12-03T23:53:02.669Z,-6.00
2022-12-03T23:56:26.789Z,-5.99
2022-12-03T23:59:50.513Z,-5.98
